sensor_id;sensor_type;location;lat;lon;timestamp;pressure;altitude;pressure_sealevel;temperature
5571;BMP180;2808;51.240;6.794;2023-02-01T00:00:11;101527.00;;;6.60
5571;BMP180;2808;51.240;6.794;2023-02-01T00:02:39;101532.00;;;6.60
5571;BMP180;2808;51.240;6.794;2023-02-01T00:05:08;101535.00;;;6.60
5571;BMP180;2808;51.240;6.794;2023-02-01T00:07:36;101538.00;;;6.60
5571;BMP180;2808;51.240;6.794;2023-02-01T00:10:04;101536.00;;;6.60
5571;BMP180;2808;51.240;6.794;2023-02-01T00:12:32;101534.00;;;6.60
5571;BMP180;2808;51.240;6.794;2023-02-01T00:14:59;101541.00;;;6.60
5571;BMP180;2808;51.240;6.794;2023-02-01T00:17:28;101528.00;;;6.60
5571;BMP180;2808;51.240;6.794;2023-02-01T00:19:55;101528.00;;;6.60
5571;BMP180;2808;51.240;6.794;2023-02-01T00:22:23;101523.00;;;6.60
5571;BMP180;2808;51.240;6.794;2023-02-01T00:24:50;101514.00;;;6.60
5571;BMP180;2808;51.240;6.794;2023-02-01T00:27:18;101511.00;;;6.60
5571;BMP180;2808;51.240;6.794;2023-02-01T00:29:47;101515.00;;;6.60
5571;BMP180;2808;51.240;6.794;2023-02-01T00:32:14;101517.00;;;6.60
5571;BMP180;2808;51.240;6.794;2023-02-01T00:34:43;101517.00;;;6.60
5571;BMP180;2808;51.240;6.794;2023-02-01T00:37:11;101510.00;;;6.60
5571;BMP180;2808;51.240;6.794;2023-02-01T00:39:41;101510.00;;;6.60
5571;BMP180;2808;51.240;6.794;2023-02-01T00:42:08;101520.00;;;6.50
5571;BMP180;2808;51.240;6.794;2023-02-01T00:44:36;101510.00;;;6.60
5571;BMP180;2808;51.240;6.794;2023-02-01T00:47:03;101504.00;;;6.60
5571;BMP180;2808;51.240;6.794;2023-02-01T00:49:30;101492.00;;;6.60
5571;BMP180;2808;51.240;6.794;2023-02-01T00:51:59;101492.00;;;6.60
5571;BMP180;2808;51.240;6.794;2023-02-01T00:54:27;101463.00;;;6.60
5571;BMP180;2808;51.240;6.794;2023-02-01T00:56:54;101466.00;;;6.50
5571;BMP180;2808;51.240;6.794;2023-02-01T00:59:22;101461.00;;;6.50
5571;BMP180;2808;51.240;6.794;2023-02-01T01:01:49;101473.00;;;6.40
5571;BMP180;2808;51.240;6.794;2023-02-01T01:04:16;101472.00;;;6.40
5571;BMP180;2808;51.240;6.794;2023-02-01T01:06:44;101478.00;;;6.40
5571;BMP180;2808;51.240;6.794;2023-02-01T01:09:13;101475.00;;;6.30
5571;BMP180;2808;51.240;6.794;2023-02-01T01:11:40;101491.00;;;6.30
5571;BMP180;2808;51.240;6.794;2023-02-01T01:14:08;101495.00;;;6.30
5571;BMP180;2808;51.240;6.794;2023-02-01T01:16:36;101489.00;;;6.40
5571;BMP180;2808;51.240;6.794;2023-02-01T01:19:04;101494.00;;;6.40
5571;BMP180;2808;51.240;6.794;2023-02-01T01:21:31;101507.00;;;6.40
5571;BMP180;2808;51.240;6.794;2023-02-01T01:23:59;101512.00;;;6.40
5571;BMP180;2808;51.240;6.794;2023-02-01T01:26:29;101498.00;;;6.40
5571;BMP180;2808;51.240;6.794;2023-02-01T01:28:58;101503.00;;;6.30
5571;BMP180;2808;51.240;6.794;2023-02-01T01:31:26;101502.00;;;6.30
5571;BMP180;2808;51.240;6.794;2023-02-01T01:33:54;101511.00;;;6.40
5571;BMP180;2808;51.240;6.794;2023-02-01T01:36:22;101510.00;;;6.40
5571;BMP180;2808;51.240;6.794;2023-02-01T01:38:50;101512.00;;;6.40
5571;BMP180;2808;51.240;6.794;2023-02-01T01:41:19;101500.00;;;6.30
5571;BMP180;2808;51.240;6.794;2023-02-01T01:43:54;101509.00;;;6.30
5571;BMP180;2808;51.240;6.794;2023-02-01T01:46:23;101520.00;;;6.30
5571;BMP180;2808;51.240;6.794;2023-02-01T01:48:56;101512.00;;;6.30
5571;BMP180;2808;51.240;6.794;2023-02-01T01:51:26;101506.00;;;6.30
5571;BMP180;2808;51.240;6.794;2023-02-01T01:54:02;101490.00;;;6.20
5571;BMP180;2808;51.240;6.794;2023-02-01T01:56:31;101489.00;;;6.20
5571;BMP180;2808;51.240;6.794;2023-02-01T01:59:03;101490.00;;;6.20
5571;BMP180;2808;51.240;6.794;2023-02-01T02:01:32;101486.00;;;6.20
5571;BMP180;2808;51.240;6.794;2023-02-01T02:04:00;101480.00;;;6.20
5571;BMP180;2808;51.240;6.794;2023-02-01T02:06:40;101481.00;;;6.10
5571;BMP180;2808;51.240;6.794;2023-02-01T02:09:07;101478.00;;;6.10
5571;BMP180;2808;51.240;6.794;2023-02-01T02:11:35;101460.00;;;6.10
5571;BMP180;2808;51.240;6.794;2023-02-01T02:14:06;101463.00;;;6.10
5571;BMP180;2808;51.240;6.794;2023-02-01T02:16:52;101464.00;;;6.00
5571;BMP180;2808;51.240;6.794;2023-02-01T02:26:12;101457.00;;;5.90
5571;BMP180;2808;51.240;6.794;2023-02-01T02:29:16;101477.00;;;5.90
5571;BMP180;2808;51.240;6.794;2023-02-01T02:34:49;101462.00;;;5.90
5571;BMP180;2808;51.240;6.794;2023-02-01T02:37:26;101460.00;;;5.90
5571;BMP180;2808;51.240;6.794;2023-02-01T02:40:01;101454.00;;;5.90
5571;BMP180;2808;51.240;6.794;2023-02-01T02:42:41;101458.00;;;5.90
5571;BMP180;2808;51.240;6.794;2023-02-01T02:45:34;101453.00;;;5.80
5571;BMP180;2808;51.240;6.794;2023-02-01T02:48:26;101438.00;;;5.80
5571;BMP180;2808;51.240;6.794;2023-02-01T02:51:00;101432.00;;;5.80
5571;BMP180;2808;51.240;6.794;2023-02-01T02:53:52;101444.00;;;5.70
5571;BMP180;2808;51.240;6.794;2023-02-01T02:56:42;101446.00;;;5.60
5571;BMP180;2808;51.240;6.794;2023-02-01T02:59:28;101445.00;;;5.60
5571;BMP180;2808;51.240;6.794;2023-02-01T03:02:15;101442.00;;;5.50
5571;BMP180;2808;51.240;6.794;2023-02-01T03:05:00;101451.00;;;5.50
5571;BMP180;2808;51.240;6.794;2023-02-01T03:07:57;101450.00;;;5.50
5571;BMP180;2808;51.240;6.794;2023-02-01T03:10:35;101450.00;;;5.60
5571;BMP180;2808;51.240;6.794;2023-02-01T03:13:07;101443.00;;;5.60
5571;BMP180;2808;51.240;6.794;2023-02-01T03:15:38;101443.00;;;5.70
5571;BMP180;2808;51.240;6.794;2023-02-01T03:18:11;101439.00;;;5.80
5571;BMP180;2808;51.240;6.794;2023-02-01T03:20:40;101437.00;;;5.80
5571;BMP180;2808;51.240;6.794;2023-02-01T03:23:15;101430.00;;;5.80
5571;BMP180;2808;51.240;6.794;2023-02-01T03:25:43;101423.00;;;5.80
5571;BMP180;2808;51.240;6.794;2023-02-01T03:28:12;101429.00;;;5.80
5571;BMP180;2808;51.240;6.794;2023-02-01T03:30:42;101422.00;;;5.90
5571;BMP180;2808;51.240;6.794;2023-02-01T03:33:12;101422.00;;;5.90
5571;BMP180;2808;51.240;6.794;2023-02-01T03:35:54;101423.00;;;5.90
5571;BMP180;2808;51.240;6.794;2023-02-01T03:38:27;101413.00;;;5.90
5571;BMP180;2808;51.240;6.794;2023-02-01T03:41:02;101418.00;;;5.90
5571;BMP180;2808;51.240;6.794;2023-02-01T03:43:33;101413.00;;;5.90
5571;BMP180;2808;51.240;6.794;2023-02-01T03:46:07;101403.00;;;5.90
5571;BMP180;2808;51.240;6.794;2023-02-01T03:48:36;101404.00;;;6.00
5571;BMP180;2808;51.240;6.794;2023-02-01T03:51:06;101400.00;;;6.00
5571;BMP180;2808;51.240;6.794;2023-02-01T03:53:36;101404.00;;;6.00
5571;BMP180;2808;51.240;6.794;2023-02-01T03:56:04;101405.00;;;6.10
5571;BMP180;2808;51.240;6.794;2023-02-01T03:58:33;101418.00;;;6.10
5571;BMP180;2808;51.240;6.794;2023-02-01T04:01:00;101409.00;;;6.10
5571;BMP180;2808;51.240;6.794;2023-02-01T04:03:28;101410.00;;;6.10
5571;BMP180;2808;51.240;6.794;2023-02-01T04:05:56;101402.00;;;6.10
5571;BMP180;2808;51.240;6.794;2023-02-01T04:08:24;101375.00;;;6.20
5571;BMP180;2808;51.240;6.794;2023-02-01T04:10:52;101400.00;;;6.20
5571;BMP180;2808;51.240;6.794;2023-02-01T04:13:20;101389.00;;;6.20
5571;BMP180;2808;51.240;6.794;2023-02-01T04:15:47;101382.00;;;6.10
5571;BMP180;2808;51.240;6.794;2023-02-01T04:18:16;101386.00;;;6.10
5571;BMP180;2808;51.240;6.794;2023-02-01T04:20:44;101364.00;;;6.10
5571;BMP180;2808;51.240;6.794;2023-02-01T04:23:11;101355.00;;;6.10
5571;BMP180;2808;51.240;6.794;2023-02-01T04:25:41;101346.00;;;6.00
5571;BMP180;2808;51.240;6.794;2023-02-01T04:28:10;101358.00;;;5.90
5571;BMP180;2808;51.240;6.794;2023-02-01T04:30:37;101355.00;;;5.90
5571;BMP180;2808;51.240;6.794;2023-02-01T04:33:05;101359.00;;;5.90
5571;BMP180;2808;51.240;6.794;2023-02-01T04:35:32;101351.00;;;5.80
5571;BMP180;2808;51.240;6.794;2023-02-01T04:38:00;101367.00;;;5.80
5571;BMP180;2808;51.240;6.794;2023-02-01T04:40:30;101382.00;;;5.70
5571;BMP180;2808;51.240;6.794;2023-02-01T04:42:57;101379.00;;;5.70
5571;BMP180;2808;51.240;6.794;2023-02-01T04:45:26;101381.00;;;5.70
5571;BMP180;2808;51.240;6.794;2023-02-01T04:47:53;101382.00;;;5.70
5571;BMP180;2808;51.240;6.794;2023-02-01T04:50:21;101385.00;;;5.70
5571;BMP180;2808;51.240;6.794;2023-02-01T04:52:49;101390.00;;;5.70
5571;BMP180;2808;51.240;6.794;2023-02-01T04:55:17;101386.00;;;5.70
5571;BMP180;2808;51.240;6.794;2023-02-01T04:57:44;101389.00;;;5.70
5571;BMP180;2808;51.240;6.794;2023-02-01T05:00:12;101389.00;;;5.80
5571;BMP180;2808;51.240;6.794;2023-02-01T05:02:41;101386.00;;;5.80
5571;BMP180;2808;51.240;6.794;2023-02-01T05:05:09;101402.00;;;5.80
5571;BMP180;2808;51.240;6.794;2023-02-01T05:07:36;101392.00;;;5.80
5571;BMP180;2808;51.240;6.794;2023-02-01T05:10:04;101403.00;;;5.80
5571;BMP180;2808;51.240;6.794;2023-02-01T05:12:31;101408.00;;;5.80
5571;BMP180;2808;51.240;6.794;2023-02-01T05:15:16;101387.00;;;5.80
5571;BMP180;2808;51.240;6.794;2023-02-01T05:17:45;101391.00;;;5.80
5571;BMP180;2808;51.240;6.794;2023-02-01T05:20:13;101390.00;;;5.80
5571;BMP180;2808;51.240;6.794;2023-02-01T05:22:41;101388.00;;;5.80
5571;BMP180;2808;51.240;6.794;2023-02-01T05:25:09;101402.00;;;5.70
5571;BMP180;2808;51.240;6.794;2023-02-01T05:27:36;101404.00;;;5.70
5571;BMP180;2808;51.240;6.794;2023-02-01T05:30:05;101404.00;;;5.70
5571;BMP180;2808;51.240;6.794;2023-02-01T05:32:32;101406.00;;;5.70
5571;BMP180;2808;51.240;6.794;2023-02-01T05:35:01;101412.00;;;5.70
5571;BMP180;2808;51.240;6.794;2023-02-01T05:37:29;101409.00;;;5.70
5571;BMP180;2808;51.240;6.794;2023-02-01T05:39:56;101395.00;;;5.60
5571;BMP180;2808;51.240;6.794;2023-02-01T05:42:24;101397.00;;;5.60
5571;BMP180;2808;51.240;6.794;2023-02-01T05:44:51;101392.00;;;5.60
5571;BMP180;2808;51.240;6.794;2023-02-01T05:47:19;101388.00;;;5.60
5571;BMP180;2808;51.240;6.794;2023-02-01T05:49:46;101402.00;;;5.60
5571;BMP180;2808;51.240;6.794;2023-02-01T05:52:15;101389.00;;;5.50
5571;BMP180;2808;51.240;6.794;2023-02-01T05:54:45;101397.00;;;5.50
5571;BMP180;2808;51.240;6.794;2023-02-01T05:57:13;101395.00;;;5.50
5571;BMP180;2808;51.240;6.794;2023-02-01T05:59:41;101408.00;;;5.50
5571;BMP180;2808;51.240;6.794;2023-02-01T06:02:14;101398.00;;;5.50
5571;BMP180;2808;51.240;6.794;2023-02-01T06:04:41;101391.00;;;5.50
5571;BMP180;2808;51.240;6.794;2023-02-01T06:07:09;101390.00;;;5.50
5571;BMP180;2808;51.240;6.794;2023-02-01T06:09:39;101396.00;;;5.50
5571;BMP180;2808;51.240;6.794;2023-02-01T06:12:06;101397.00;;;5.40
5571;BMP180;2808;51.240;6.794;2023-02-01T06:14:34;101398.00;;;5.40
5571;BMP180;2808;51.240;6.794;2023-02-01T06:17:03;101393.00;;;5.40
5571;BMP180;2808;51.240;6.794;2023-02-01T06:19:31;101406.00;;;5.50
5571;BMP180;2808;51.240;6.794;2023-02-01T06:21:59;101406.00;;;5.50
5571;BMP180;2808;51.240;6.794;2023-02-01T06:24:26;101403.00;;;5.60
5571;BMP180;2808;51.240;6.794;2023-02-01T06:26:55;101411.00;;;5.60
5571;BMP180;2808;51.240;6.794;2023-02-01T06:29:22;101410.00;;;5.70
5571;BMP180;2808;51.240;6.794;2023-02-01T06:31:50;101410.00;;;5.80
5571;BMP180;2808;51.240;6.794;2023-02-01T06:34:19;101417.00;;;5.80
5571;BMP180;2808;51.240;6.794;2023-02-01T06:36:48;101407.00;;;5.80
5571;BMP180;2808;51.240;6.794;2023-02-01T06:39:16;101423.00;;;5.80
5571;BMP180;2808;51.240;6.794;2023-02-01T06:41:45;101429.00;;;5.90
5571;BMP180;2808;51.240;6.794;2023-02-01T06:44:14;101419.00;;;5.90
5571;BMP180;2808;51.240;6.794;2023-02-01T06:46:41;101418.00;;;5.90
5571;BMP180;2808;51.240;6.794;2023-02-01T06:49:09;101411.00;;;5.90
5571;BMP180;2808;51.240;6.794;2023-02-01T06:51:36;101412.00;;;5.90
5571;BMP180;2808;51.240;6.794;2023-02-01T06:54:04;101406.00;;;6.00
5571;BMP180;2808;51.240;6.794;2023-02-01T06:56:31;101397.00;;;6.00
5571;BMP180;2808;51.240;6.794;2023-02-01T06:58:59;101401.00;;;6.00
5571;BMP180;2808;51.240;6.794;2023-02-01T07:01:28;101401.00;;;6.10
5571;BMP180;2808;51.240;6.794;2023-02-01T07:03:58;101406.00;;;6.10
5571;BMP180;2808;51.240;6.794;2023-02-01T07:06:26;101411.00;;;6.10
5571;BMP180;2808;51.240;6.794;2023-02-01T07:08:53;101417.00;;;6.10
5571;BMP180;2808;51.240;6.794;2023-02-01T07:11:22;101420.00;;;6.10
5571;BMP180;2808;51.240;6.794;2023-02-01T07:13:50;101430.00;;;6.10
5571;BMP180;2808;51.240;6.794;2023-02-01T07:16:19;101430.00;;;6.20
5571;BMP180;2808;51.240;6.794;2023-02-01T07:18:49;101435.00;;;6.20
5571;BMP180;2808;51.240;6.794;2023-02-01T07:21:16;101441.00;;;6.30
5571;BMP180;2808;51.240;6.794;2023-02-01T07:23:44;101443.00;;;6.30
5571;BMP180;2808;51.240;6.794;2023-02-01T07:26:13;101435.00;;;6.30
5571;BMP180;2808;51.240;6.794;2023-02-01T07:28:42;101429.00;;;6.30
5571;BMP180;2808;51.240;6.794;2023-02-01T07:31:11;101438.00;;;6.30
5571;BMP180;2808;51.240;6.794;2023-02-01T07:33:41;101430.00;;;6.30
5571;BMP180;2808;51.240;6.794;2023-02-01T07:36:13;101425.00;;;6.30
5571;BMP180;2808;51.240;6.794;2023-02-01T07:38:40;101432.00;;;6.30
5571;BMP180;2808;51.240;6.794;2023-02-01T07:41:08;101441.00;;;6.30
5571;BMP180;2808;51.240;6.794;2023-02-01T07:43:36;101436.00;;;6.30
5571;BMP180;2808;51.240;6.794;2023-02-01T07:46:05;101435.00;;;6.30
5571;BMP180;2808;51.240;6.794;2023-02-01T07:48:38;101435.00;;;6.30
5571;BMP180;2808;51.240;6.794;2023-02-01T07:51:08;101440.00;;;6.40
5571;BMP180;2808;51.240;6.794;2023-02-01T07:53:37;101444.00;;;6.40
5571;BMP180;2808;51.240;6.794;2023-02-01T07:56:11;101445.00;;;6.40
5571;BMP180;2808;51.240;6.794;2023-02-01T07:58:38;101449.00;;;6.40
5571;BMP180;2808;51.240;6.794;2023-02-01T08:01:10;101436.00;;;6.40
5571;BMP180;2808;51.240;6.794;2023-02-01T08:03:50;101437.00;;;6.40
5571;BMP180;2808;51.240;6.794;2023-02-01T08:06:18;101447.00;;;6.40
5571;BMP180;2808;51.240;6.794;2023-02-01T08:08:48;101446.00;;;6.50
5571;BMP180;2808;51.240;6.794;2023-02-01T08:11:18;101439.00;;;6.50
5571;BMP180;2808;51.240;6.794;2023-02-01T08:13:46;101440.00;;;6.50
5571;BMP180;2808;51.240;6.794;2023-02-01T08:16:17;101446.00;;;6.50
5571;BMP180;2808;51.240;6.794;2023-02-01T08:18:44;101447.00;;;6.50
5571;BMP180;2808;51.240;6.794;2023-02-01T08:21:14;101454.00;;;6.50
5571;BMP180;2808;51.240;6.794;2023-02-01T08:23:52;101463.00;;;6.50
5571;BMP180;2808;51.240;6.794;2023-02-01T08:26:24;101460.00;;;6.50
5571;BMP180;2808;51.240;6.794;2023-02-01T08:28:56;101471.00;;;6.50
5571;BMP180;2808;51.240;6.794;2023-02-01T08:31:30;101464.00;;;6.50
5571;BMP180;2808;51.240;6.794;2023-02-01T08:33:59;101465.00;;;6.50
5571;BMP180;2808;51.240;6.794;2023-02-01T08:36:28;101482.00;;;6.60
5571;BMP180;2808;51.240;6.794;2023-02-01T08:38:57;101488.00;;;6.60
5571;BMP180;2808;51.240;6.794;2023-02-01T08:41:27;101493.00;;;6.70
5571;BMP180;2808;51.240;6.794;2023-02-01T08:43:57;101485.00;;;6.70
5571;BMP180;2808;51.240;6.794;2023-02-01T08:46:24;101505.00;;;6.70
5571;BMP180;2808;51.240;6.794;2023-02-01T08:48:52;101507.00;;;6.70
5571;BMP180;2808;51.240;6.794;2023-02-01T08:51:21;101493.00;;;6.80
5571;BMP180;2808;51.240;6.794;2023-02-01T08:53:49;101503.00;;;6.80
5571;BMP180;2808;51.240;6.794;2023-02-01T08:56:19;101498.00;;;6.80
5571;BMP180;2808;51.240;6.794;2023-02-01T08:58:46;101500.00;;;6.80
5571;BMP180;2808;51.240;6.794;2023-02-01T09:01:15;101499.00;;;6.80
5571;BMP180;2808;51.240;6.794;2023-02-01T09:03:43;101481.00;;;6.90
5571;BMP180;2808;51.240;6.794;2023-02-01T09:06:13;101487.00;;;6.90
5571;BMP180;2808;51.240;6.794;2023-02-01T09:08:41;101485.00;;;6.90
5571;BMP180;2808;51.240;6.794;2023-02-01T09:11:12;101487.00;;;6.90
5571;BMP180;2808;51.240;6.794;2023-02-01T09:13:41;101460.00;;;6.90
5571;BMP180;2808;51.240;6.794;2023-02-01T09:16:09;101476.00;;;6.90
5571;BMP180;2808;51.240;6.794;2023-02-01T09:18:36;101465.00;;;6.90
5571;BMP180;2808;51.240;6.794;2023-02-01T09:21:07;101479.00;;;6.90
5571;BMP180;2808;51.240;6.794;2023-02-01T09:23:35;101472.00;;;6.90
5571;BMP180;2808;51.240;6.794;2023-02-01T09:26:03;101467.00;;;6.80
5571;BMP180;2808;51.240;6.794;2023-02-01T09:28:32;101474.00;;;6.80
5571;BMP180;2808;51.240;6.794;2023-02-01T09:31:02;101481.00;;;6.90
5571;BMP180;2808;51.240;6.794;2023-02-01T09:33:30;101491.00;;;6.90
5571;BMP180;2808;51.240;6.794;2023-02-01T09:35:58;101475.00;;;6.90
5571;BMP180;2808;51.240;6.794;2023-02-01T09:38:26;101472.00;;;7.00
5571;BMP180;2808;51.240;6.794;2023-02-01T09:40:54;101465.00;;;6.90
5571;BMP180;2808;51.240;6.794;2023-02-01T09:43:31;101463.00;;;7.00
5571;BMP180;2808;51.240;6.794;2023-02-01T09:46:10;101465.00;;;7.00
5571;BMP180;2808;51.240;6.794;2023-02-01T09:48:44;101470.00;;;7.00
5571;BMP180;2808;51.240;6.794;2023-02-01T09:51:15;101469.00;;;6.90
5571;BMP180;2808;51.240;6.794;2023-02-01T09:53:46;101475.00;;;6.90
5571;BMP180;2808;51.240;6.794;2023-02-01T09:56:22;101449.00;;;7.00
5571;BMP180;2808;51.240;6.794;2023-02-01T09:58:58;101462.00;;;7.10
5571;BMP180;2808;51.240;6.794;2023-02-01T10:01:31;101465.00;;;7.00
5571;BMP180;2808;51.240;6.794;2023-02-01T10:04:04;101456.00;;;7.10
5571;BMP180;2808;51.240;6.794;2023-02-01T10:06:40;101466.00;;;7.10
5571;BMP180;2808;51.240;6.794;2023-02-01T10:09:19;101455.00;;;7.10
5571;BMP180;2808;51.240;6.794;2023-02-01T10:12:15;101456.00;;;7.10
5571;BMP180;2808;51.240;6.794;2023-02-01T10:14:59;101452.00;;;7.10
5571;BMP180;2808;51.240;6.794;2023-02-01T10:17:43;101463.00;;;7.20
5571;BMP180;2808;51.240;6.794;2023-02-01T10:20:21;101458.00;;;7.20
5571;BMP180;2808;51.240;6.794;2023-02-01T10:23:01;101451.00;;;7.30
5571;BMP180;2808;51.240;6.794;2023-02-01T10:25:36;101458.00;;;7.30
5571;BMP180;2808;51.240;6.794;2023-02-01T10:28:13;101456.00;;;7.30
5571;BMP180;2808;51.240;6.794;2023-02-01T10:30:44;101453.00;;;7.40
5571;BMP180;2808;51.240;6.794;2023-02-01T10:33:18;101444.00;;;7.40
5571;BMP180;2808;51.240;6.794;2023-02-01T10:35:47;101450.00;;;7.40
5571;BMP180;2808;51.240;6.794;2023-02-01T10:38:23;101445.00;;;7.40
5571;BMP180;2808;51.240;6.794;2023-02-01T10:40:53;101454.00;;;7.40
5571;BMP180;2808;51.240;6.794;2023-02-01T10:43:22;101457.00;;;7.40
5571;BMP180;2808;51.240;6.794;2023-02-01T10:45:49;101463.00;;;7.40
5571;BMP180;2808;51.240;6.794;2023-02-01T10:48:35;101462.00;;;7.50
5571;BMP180;2808;51.240;6.794;2023-02-01T10:51:39;101446.00;;;7.50
5571;BMP180;2808;51.240;6.794;2023-02-01T10:54:14;101449.00;;;7.50
5571;BMP180;2808;51.240;6.794;2023-02-01T10:56:44;101450.00;;;7.60
5571;BMP180;2808;51.240;6.794;2023-02-01T10:59:23;101451.00;;;7.60
5571;BMP180;2808;51.240;6.794;2023-02-01T11:01:57;101436.00;;;7.60
5571;BMP180;2808;51.240;6.794;2023-02-01T11:04:34;101433.00;;;7.60
5571;BMP180;2808;51.240;6.794;2023-02-01T11:07:12;101440.00;;;7.60
5571;BMP180;2808;51.240;6.794;2023-02-01T11:09:40;101435.00;;;7.60
5571;BMP180;2808;51.240;6.794;2023-02-01T11:12:29;101427.00;;;7.60
5571;BMP180;2808;51.240;6.794;2023-02-01T11:15:12;101428.00;;;7.60
5571;BMP180;2808;51.240;6.794;2023-02-01T11:17:43;101429.00;;;7.60
5571;BMP180;2808;51.240;6.794;2023-02-01T11:20:16;101434.00;;;7.60
5571;BMP180;2808;51.240;6.794;2023-02-01T11:22:53;101435.00;;;7.70
5571;BMP180;2808;51.240;6.794;2023-02-01T11:25:22;101428.00;;;7.70
5571;BMP180;2808;51.240;6.794;2023-02-01T11:27:51;101411.00;;;7.70
5571;BMP180;2808;51.240;6.794;2023-02-01T11:30:27;101414.00;;;7.70
5571;BMP180;2808;51.240;6.794;2023-02-01T11:32:59;101411.00;;;7.70
5571;BMP180;2808;51.240;6.794;2023-02-01T11:35:30;101410.00;;;7.70
5571;BMP180;2808;51.240;6.794;2023-02-01T11:37:59;101396.00;;;7.70
5571;BMP180;2808;51.240;6.794;2023-02-01T11:40:29;101396.00;;;7.80
5571;BMP180;2808;51.240;6.794;2023-02-01T11:42:58;101392.00;;;7.80
5571;BMP180;2808;51.240;6.794;2023-02-01T11:45:29;101392.00;;;7.80
5571;BMP180;2808;51.240;6.794;2023-02-01T11:47:58;101387.00;;;7.80
5571;BMP180;2808;51.240;6.794;2023-02-01T11:50:34;101386.00;;;7.80
5571;BMP180;2808;51.240;6.794;2023-02-01T11:53:31;101388.00;;;7.80
5571;BMP180;2808;51.240;6.794;2023-02-01T11:56:11;101360.00;;;7.80
5571;BMP180;2808;51.240;6.794;2023-02-01T11:58:57;101381.00;;;7.80
5571;BMP180;2808;51.240;6.794;2023-02-01T12:01:47;101366.00;;;7.80
5571;BMP180;2808;51.240;6.794;2023-02-01T12:04:44;101361.00;;;7.90
5571;BMP180;2808;51.240;6.794;2023-02-01T12:07:18;101356.00;;;7.90
5571;BMP180;2808;51.240;6.794;2023-02-01T12:10:00;101369.00;;;7.90
5571;BMP180;2808;51.240;6.794;2023-02-01T12:12:38;101359.00;;;7.90
5571;BMP180;2808;51.240;6.794;2023-02-01T12:15:18;101348.00;;;7.90
5571;BMP180;2808;51.240;6.794;2023-02-01T12:21:23;101357.00;;;8.00
5571;BMP180;2808;51.240;6.794;2023-02-01T12:24:07;101358.00;;;8.00
5571;BMP180;2808;51.240;6.794;2023-02-01T12:26:57;101351.00;;;7.90
5571;BMP180;2808;51.240;6.794;2023-02-01T12:29:49;101349.00;;;7.90
5571;BMP180;2808;51.240;6.794;2023-02-01T12:32:37;101359.00;;;7.80
5571;BMP180;2808;51.240;6.794;2023-02-01T12:35:18;101348.00;;;7.80
5571;BMP180;2808;51.240;6.794;2023-02-01T12:38:17;101345.00;;;7.80
5571;BMP180;2808;51.240;6.794;2023-02-01T12:41:00;101338.00;;;7.80
5571;BMP180;2808;51.240;6.794;2023-02-01T12:43:39;101327.00;;;7.80
5571;BMP180;2808;51.240;6.794;2023-02-01T12:46:16;101341.00;;;7.90
5571;BMP180;2808;51.240;6.794;2023-02-01T12:48:52;101323.00;;;7.80
5571;BMP180;2808;51.240;6.794;2023-02-01T12:51:26;101323.00;;;7.80
5571;BMP180;2808;51.240;6.794;2023-02-01T12:53:57;101322.00;;;7.80
5571;BMP180;2808;51.240;6.794;2023-02-01T12:56:32;101323.00;;;7.80
5571;BMP180;2808;51.240;6.794;2023-02-01T12:59:04;101305.00;;;7.80
5571;BMP180;2808;51.240;6.794;2023-02-01T13:01:35;101315.00;;;7.80
5571;BMP180;2808;51.240;6.794;2023-02-01T13:04:08;101315.00;;;7.80
5571;BMP180;2808;51.240;6.794;2023-02-01T13:06:47;101316.00;;;7.80
5571;BMP180;2808;51.240;6.794;2023-02-01T13:09:21;101315.00;;;7.80
5571;BMP180;2808;51.240;6.794;2023-02-01T13:11:53;101306.00;;;7.80
5571;BMP180;2808;51.240;6.794;2023-02-01T13:14:28;101311.00;;;7.80
5571;BMP180;2808;51.240;6.794;2023-02-01T13:17:01;101309.00;;;7.80
5571;BMP180;2808;51.240;6.794;2023-02-01T13:19:37;101299.00;;;7.80
5571;BMP180;2808;51.240;6.794;2023-02-01T13:22:12;101304.00;;;7.80
5571;BMP180;2808;51.240;6.794;2023-02-01T13:24:42;101310.00;;;7.80
5571;BMP180;2808;51.240;6.794;2023-02-01T13:27:14;101300.00;;;7.80
5571;BMP180;2808;51.240;6.794;2023-02-01T13:29:49;101314.00;;;7.90
5571;BMP180;2808;51.240;6.794;2023-02-01T13:32:44;101306.00;;;7.90
5571;BMP180;2808;51.240;6.794;2023-02-01T13:41:42;101311.00;;;7.90
5571;BMP180;2808;51.240;6.794;2023-02-01T13:44:24;101303.00;;;7.90
5571;BMP180;2808;51.240;6.794;2023-02-01T13:46:56;101302.00;;;7.90
5571;BMP180;2808;51.240;6.794;2023-02-01T13:49:27;101302.00;;;7.90
5571;BMP180;2808;51.240;6.794;2023-02-01T13:51:57;101302.00;;;7.90
5571;BMP180;2808;51.240;6.794;2023-02-01T13:54:29;101306.00;;;7.90
5571;BMP180;2808;51.240;6.794;2023-02-01T13:56:58;101294.00;;;7.90
5571;BMP180;2808;51.240;6.794;2023-02-01T14:06:05;101310.00;;;8.00
5571;BMP180;2808;51.240;6.794;2023-02-01T14:08:44;101312.00;;;8.00
5571;BMP180;2808;51.240;6.794;2023-02-01T14:11:40;101303.00;;;8.10
5571;BMP180;2808;51.240;6.794;2023-02-01T14:17:36;101313.00;;;8.10
5571;BMP180;2808;51.240;6.794;2023-02-01T14:23:21;101308.00;;;8.10
5571;BMP180;2808;51.240;6.794;2023-02-01T14:26:15;101305.00;;;8.10
5571;BMP180;2808;51.240;6.794;2023-02-01T14:28:58;101316.00;;;8.10
5571;BMP180;2808;51.240;6.794;2023-02-01T14:31:48;101319.00;;;8.10
5571;BMP180;2808;51.240;6.794;2023-02-01T14:34:20;101318.00;;;8.10
5571;BMP180;2808;51.240;6.794;2023-02-01T14:36:52;101322.00;;;8.10
5571;BMP180;2808;51.240;6.794;2023-02-01T14:39:26;101325.00;;;8.10
5571;BMP180;2808;51.240;6.794;2023-02-01T14:41:57;101319.00;;;8.10
5571;BMP180;2808;51.240;6.794;2023-02-01T14:44:28;101321.00;;;8.10
5571;BMP180;2808;51.240;6.794;2023-02-01T14:47:27;101322.00;;;8.20
5571;BMP180;2808;51.240;6.794;2023-02-01T14:50:04;101327.00;;;8.20
5571;BMP180;2808;51.240;6.794;2023-02-01T14:52:39;101327.00;;;8.20
5571;BMP180;2808;51.240;6.794;2023-02-01T14:55:15;101325.00;;;8.20
5571;BMP180;2808;51.240;6.794;2023-02-01T14:57:47;101329.00;;;8.20
5571;BMP180;2808;51.240;6.794;2023-02-01T15:00:21;101312.00;;;8.20
5571;BMP180;2808;51.240;6.794;2023-02-01T15:02:49;101326.00;;;8.20
5571;BMP180;2808;51.240;6.794;2023-02-01T15:05:28;101333.00;;;8.20
5571;BMP180;2808;51.240;6.794;2023-02-01T15:08:04;101317.00;;;8.20
5571;BMP180;2808;51.240;6.794;2023-02-01T15:10:41;101332.00;;;8.20
5571;BMP180;2808;51.240;6.794;2023-02-01T15:13:19;101335.00;;;8.20
5571;BMP180;2808;51.240;6.794;2023-02-01T15:16:01;101342.00;;;8.20
5571;BMP180;2808;51.240;6.794;2023-02-01T15:18:29;101339.00;;;8.20
5571;BMP180;2808;51.240;6.794;2023-02-01T15:20:58;101351.00;;;8.20
5571;BMP180;2808;51.240;6.794;2023-02-01T15:23:26;101322.00;;;8.20
5571;BMP180;2808;51.240;6.794;2023-02-01T15:25:55;101351.00;;;8.20
5571;BMP180;2808;51.240;6.794;2023-02-01T15:28:23;101343.00;;;8.20
5571;BMP180;2808;51.240;6.794;2023-02-01T15:30:56;101346.00;;;8.20
5571;BMP180;2808;51.240;6.794;2023-02-01T15:33:25;101347.00;;;8.20
5571;BMP180;2808;51.240;6.794;2023-02-01T15:35:54;101336.00;;;8.30